sensor_id;sensor_type;location;lat;lon;timestamp;pressure;altitude;pressure_sealevel;temperature;humidity
48216;BME280;34005;48.844;10.098;2022-09-09T00:00:11;96369.16;;;15.65;63.49
48216;BME280;34005;48.844;10.098;2022-09-09T00:02:40;96378.69;;;15.66;63.51
48216;BME280;34005;48.844;10.098;2022-09-09T00:05:19;96386.31;;;15.68;63.74
48216;BME280;34005;48.844;10.098;2022-09-09T00:07:55;96374.59;;;15.70;63.36
48216;BME280;34005;48.844;10.098;2022-09-09T00:10:30;96379.63;;;15.72;63.15
48216;BME280;34005;48.844;10.098;2022-09-09T00:13:16;96369.34;;;15.70;63.33
48216;BME280;34005;48.844;10.098;2022-09-09T00:15:55;96367.91;;;15.68;63.39
48216;BME280;34005;48.844;10.098;2022-09-09T00:18:27;96368.38;;;15.64;63.25
48216;BME280;34005;48.844;10.098;2022-09-09T00:21:04;96358.88;;;15.63;63.41
48216;BME280;34005;48.844;10.098;2022-09-09T00:23:38;96355.22;;;15.64;63.43
48216;BME280;34005;48.844;10.098;2022-09-09T00:26:11;96350.75;;;15.65;63.28
48216;BME280;34005;48.844;10.098;2022-09-09T00:28:48;96360.47;;;15.64;63.28
48216;BME280;34005;48.844;10.098;2022-09-09T00:31:20;96358.44;;;15.66;63.13
48216;BME280;34005;48.844;10.098;2022-09-09T00:33:50;96365.88;;;15.70;63.04
48216;BME280;34005;48.844;10.098;2022-09-09T00:36:22;96368.13;;;15.73;62.88
48216;BME280;34005;48.844;10.098;2022-09-09T00:38:56;96368.13;;;15.73;62.60
48216;BME280;34005;48.844;10.098;2022-09-09T00:41:35;96369.34;;;15.70;62.67
48216;BME280;34005;48.844;10.098;2022-09-09T00:44:18;96369.75;;;15.67;63.19
48216;BME280;34005;48.844;10.098;2022-09-09T00:47:00;96356.25;;;15.63;62.88
48216;BME280;34005;48.844;10.098;2022-09-09T00:49:43;96357.47;;;15.61;62.79
48216;BME280;34005;48.844;10.098;2022-09-09T00:52:23;96364.56;;;15.60;62.93
48216;BME280;34005;48.844;10.098;2022-09-09T00:55:02;96363.56;;;15.61;62.87
48216;BME280;34005;48.844;10.098;2022-09-09T00:57:33;96366.78;;;15.63;62.83
48216;BME280;34005;48.844;10.098;2022-09-09T01:00:20;96374.66;;;15.63;62.49
48216;BME280;34005;48.844;10.098;2022-09-09T01:03:07;96367.78;;;15.62;62.73
48216;BME280;34005;48.844;10.098;2022-09-09T01:05:42;96369.41;;;15.63;62.62
48216;BME280;34005;48.844;10.098;2022-09-09T01:08:26;96370.41;;;15.62;62.81
48216;BME280;34005;48.844;10.098;2022-09-09T01:10:58;96363.56;;;15.61;62.28
48216;BME280;34005;48.844;10.098;2022-09-09T01:13:28;96364.56;;;15.60;62.54
48216;BME280;34005;48.844;10.098;2022-09-09T01:15:58;96365.59;;;15.59;62.54
48216;BME280;34005;48.844;10.098;2022-09-09T01:18:29;96363.19;;;15.58;62.47
48216;BME280;34005;48.844;10.098;2022-09-09T01:21:05;96365.81;;;15.58;62.59
48216;BME280;34005;48.844;10.098;2022-09-09T01:23:50;96377.13;;;15.58;62.37
48216;BME280;34005;48.844;10.098;2022-09-09T01:29:02;96361.34;;;15.58;62.28
48216;BME280;34005;48.844;10.098;2022-09-09T01:31:38;96360.94;;;15.61;62.01
48216;BME280;34005;48.844;10.098;2022-09-09T01:34:33;96362.53;;;15.62;61.67
48216;BME280;34005;48.844;10.098;2022-09-09T01:37:15;96362.09;;;15.65;61.61
48216;BME280;34005;48.844;10.098;2022-09-09T01:40:09;96360.47;;;15.64;61.58
48216;BME280;34005;48.844;10.098;2022-09-09T01:43:02;96356.25;;;15.63;61.71
48216;BME280;34005;48.844;10.098;2022-09-09T01:45:55;96357.06;;;15.64;61.73
48216;BME280;34005;48.844;10.098;2022-09-09T01:48:29;96359.31;;;15.60;61.54
48216;BME280;34005;48.844;10.098;2022-09-09T01:51:11;96354.50;;;15.57;61.57
48216;BME280;34005;48.844;10.098;2022-09-09T01:53:53;96352.88;;;15.56;61.51
48216;BME280;34005;48.844;10.098;2022-09-09T01:56:47;96350.69;;;15.53;61.70
48216;BME280;34005;48.844;10.098;2022-09-09T01:59:50;96354.34;;;15.52;61.81
48216;BME280;34005;48.844;10.098;2022-09-09T02:02:46;96347.69;;;15.50;61.79
48216;BME280;34005;48.844;10.098;2022-09-09T02:05:37;96355.00;;;15.48;62.08
48216;BME280;34005;48.844;10.098;2022-09-09T02:08:17;96355.81;;;15.48;61.71
48216;BME280;34005;48.844;10.098;2022-09-09T02:10:58;96354.78;;;15.49;62.20
48216;BME280;34005;48.844;10.098;2022-09-09T02:13:48;96356.63;;;15.49;61.89
48216;BME280;34005;48.844;10.098;2022-09-09T02:27:12;96361.34;;;15.40;62.05
48216;BME280;34005;48.844;10.098;2022-09-09T02:29:43;96354.84;;;15.42;61.85
48216;BME280;34005;48.844;10.098;2022-09-09T02:32:16;96352.03;;;15.44;61.60
48216;BME280;34005;48.844;10.098;2022-09-09T02:34:47;96352.03;;;15.44;61.41
48216;BME280;34005;48.844;10.098;2022-09-09T02:39:40;96341.94;;;15.41;61.52
48216;BME280;34005;48.844;10.098;2022-09-09T02:42:08;96350.25;;;15.38;61.58
48216;BME280;34005;48.844;10.098;2022-09-09T02:44:37;96347.03;;;15.36;61.83
48216;BME280;34005;48.844;10.098;2022-09-09T02:47:14;96336.53;;;15.36;61.59
48216;BME280;34005;48.844;10.098;2022-09-09T02:49:51;96343.81;;;15.34;61.69
48216;BME280;34005;48.844;10.098;2022-09-09T02:52:27;96344.84;;;15.33;61.72
48216;BME280;34005;48.844;10.098;2022-09-09T02:55:02;96338.19;;;15.30;61.66
48216;BME280;34005;48.844;10.098;2022-09-09T02:57:33;96343.09;;;15.27;61.90
48216;BME280;34005;48.844;10.098;2022-09-09T03:00:04;96351.97;;;15.25;62.14
48216;BME280;34005;48.844;10.098;2022-09-09T03:02:32;96347.97;;;15.23;62.45
48216;BME280;34005;48.844;10.098;2022-09-09T03:04:59;96346.00;;;15.18;62.36
48216;BME280;34005;48.844;10.098;2022-09-09T03:07:27;96352.69;;;15.14;62.75
48216;BME280;34005;48.844;10.098;2022-09-09T03:09:55;96347.31;;;15.09;62.86
48216;BME280;34005;48.844;10.098;2022-09-09T03:12:23;96346.13;;;15.05;62.91
48216;BME280;34005;48.844;10.098;2022-09-09T03:14:50;96348.59;;;15.00;63.39
48216;BME280;34005;48.844;10.098;2022-09-09T03:17:19;96349.00;;;14.97;63.35
48216;BME280;34005;48.844;10.098;2022-09-09T03:19:47;96348.63;;;14.93;63.42
48216;BME280;34005;48.844;10.098;2022-09-09T03:22:15;96353.09;;;14.93;63.44
48216;BME280;34005;48.844;10.098;2022-09-09T03:24:43;96347.25;;;14.91;63.70
48216;BME280;34005;48.844;10.098;2022-09-09T03:27:13;96346.44;;;14.90;63.66
48216;BME280;34005;48.844;10.098;2022-09-09T03:29:41;96341.41;;;14.89;63.62
48216;BME280;34005;48.844;10.098;2022-09-09T03:32:09;96351.09;;;14.88;63.80
48216;BME280;34005;48.844;10.098;2022-09-09T03:34:38;96353.53;;;14.90;63.66
48216;BME280;34005;48.844;10.098;2022-09-09T03:37:06;96346.66;;;14.89;63.55
48216;BME280;34005;48.844;10.098;2022-09-09T03:39:34;96339.38;;;14.91;63.55
48216;BME280;34005;48.844;10.098;2022-09-09T03:42:02;96347.84;;;14.93;63.83
48216;BME280;34005;48.844;10.098;2022-09-09T03:44:30;96340.53;;;14.95;63.73
48216;BME280;34005;48.844;10.098;2022-09-09T03:46:57;96343.19;;;14.95;63.57
48216;BME280;34005;48.844;10.098;2022-09-09T03:49:27;96333.69;;;14.94;63.62
48216;BME280;34005;48.844;10.098;2022-09-09T03:51:57;96339.38;;;14.91;63.65
48216;BME280;34005;48.844;10.098;2022-09-09T03:54:25;96345.84;;;14.88;63.77
48216;BME280;34005;48.844;10.098;2022-09-09T03:56:53;96341.41;;;14.89;63.75
48216;BME280;34005;48.844;10.098;2022-09-09T03:59:21;96354.31;;;14.90;63.72
48216;BME280;34005;48.844;10.098;2022-09-09T04:01:49;96363.59;;;14.93;63.75
48216;BME280;34005;48.844;10.098;2022-09-09T04:04:17;96368.78;;;14.99;64.25
48216;BME280;34005;48.844;10.098;2022-09-09T04:06:46;96361.28;;;15.03;63.57
48216;BME280;34005;48.844;10.098;2022-09-09T04:09:15;96366.56;;;15.03;63.34
48216;BME280;34005;48.844;10.098;2022-09-09T04:11:43;96366.56;;;15.03;63.81
48216;BME280;34005;48.844;10.098;2022-09-09T04:14:12;96366.75;;;15.01;63.54
48216;BME280;34005;48.844;10.098;2022-09-09T04:16:40;96365.16;;;15.00;63.68
48216;BME280;34005;48.844;10.098;2022-09-09T04:19:09;96363.34;;;15.01;63.58
48216;BME280;34005;48.844;10.098;2022-09-09T04:21:39;96363.53;;;14.99;63.49
48216;BME280;34005;48.844;10.098;2022-09-09T04:24:07;96372.81;;;15.02;63.75
48216;BME280;34005;48.844;10.098;2022-09-09T04:26:37;96382.09;;;15.04;63.74
48216;BME280;34005;48.844;10.098;2022-09-09T04:29:04;96380.41;;;15.10;63.74
48216;BME280;34005;48.844;10.098;2022-09-09T04:31:34;96376.34;;;15.14;63.31
48216;BME280;34005;48.844;10.098;2022-09-09T04:34:01;96384.63;;;15.18;63.47
48216;BME280;34005;48.844;10.098;2022-09-09T04:36:32;96383.59;;;15.19;63.52
48216;BME280;34005;48.844;10.098;2022-09-09T04:38:59;96382.56;;;15.20;63.33
48216;BME280;34005;48.844;10.098;2022-09-09T04:41:28;96381.53;;;15.21;63.40
48216;BME280;34005;48.844;10.098;2022-09-09T04:43:59;96387.19;;;15.24;63.92
48216;BME280;34005;48.844;10.098;2022-09-09T04:46:27;96385.94;;;15.27;63.57
48216;BME280;34005;48.844;10.098;2022-09-09T04:48:54;96387.53;;;15.28;63.60
48216;BME280;34005;48.844;10.098;2022-09-09T04:51:23;96388.94;;;15.31;63.55
48216;BME280;34005;48.844;10.098;2022-09-09T04:53:51;96387.91;;;15.32;63.46
48216;BME280;34005;48.844;10.098;2022-09-09T04:56:20;96387.13;;;15.31;63.49
48216;BME280;34005;48.844;10.098;2022-09-09T04:58:48;96385.28;;;15.32;63.54
48216;BME280;34005;48.844;10.098;2022-09-09T05:01:19;96386.91;;;15.33;63.53
48216;BME280;34005;48.844;10.098;2022-09-09T05:03:47;96384.50;;;15.31;63.61
48216;BME280;34005;48.844;10.098;2022-09-09T05:06:16;96377.41;;;15.32;63.87
48216;BME280;34005;48.844;10.098;2022-09-09T05:08:44;96384.28;;;15.33;63.74
48216;BME280;34005;48.844;10.098;2022-09-09T05:11:14;96386.66;;;15.34;63.81
48216;BME280;34005;48.844;10.098;2022-09-09T05:13:43;96389.53;;;15.33;63.88
48216;BME280;34005;48.844;10.098;2022-09-09T05:16:11;96388.72;;;15.32;63.87
48216;BME280;34005;48.844;10.098;2022-09-09T05:18:41;96389.94;;;15.30;64.13
48216;BME280;34005;48.844;10.098;2022-09-09T05:21:10;96385.94;;;15.27;64.13
48216;BME280;34005;48.844;10.098;2022-09-09T05:23:38;96387.78;;;15.27;64.65
48216;BME280;34005;48.844;10.098;2022-09-09T05:26:08;96385.13;;;15.27;64.80
48216;BME280;34005;48.844;10.098;2022-09-09T05:28:42;96389.94;;;15.30;65.08
48216;BME280;34005;48.844;10.098;2022-09-09T05:31:11;96386.09;;;15.32;65.16
48216;BME280;34005;48.844;10.098;2022-09-09T05:33:42;96387.69;;;15.33;65.06
48216;BME280;34005;48.844;10.098;2022-09-09T05:36:13;96386.66;;;15.34;65.29
48216;BME280;34005;48.844;10.098;2022-09-09T05:38:42;96385.44;;;15.37;65.20
48216;BME280;34005;48.844;10.098;2022-09-09T05:41:10;96395.53;;;15.40;65.32
48216;BME280;34005;48.844;10.098;2022-09-09T05:43:38;96396.69;;;15.44;65.21
48216;BME280;34005;48.844;10.098;2022-09-09T05:46:08;96397.88;;;15.48;65.22
48216;BME280;34005;48.844;10.098;2022-09-09T05:48:37;96403.50;;;15.52;65.26
48216;BME280;34005;48.844;10.098;2022-09-09T05:51:10;96406.72;;;15.54;65.50
48216;BME280;34005;48.844;10.098;2022-09-09T05:53:39;96405.47;;;15.56;65.36
48216;BME280;34005;48.844;10.098;2022-09-09T05:56:08;96403.22;;;15.60;65.36
48216;BME280;34005;48.844;10.098;2022-09-09T05:58:37;96401.53;;;15.65;65.08
48216;BME280;34005;48.844;10.098;2022-09-09T06:01:07;96400.06;;;15.70;65.37
48216;BME280;34005;48.844;10.098;2022-09-09T06:03:38;96394.41;;;15.73;65.59
48216;BME280;34005;48.844;10.098;2022-09-09T06:06:09;96396.84;;;15.74;65.60
48216;BME280;34005;48.844;10.098;2022-09-09T06:08:39;96395.13;;;15.80;65.66
48216;BME280;34005;48.844;10.098;2022-09-09T06:11:08;96394.25;;;15.86;65.32
48216;BME280;34005;48.844;10.098;2022-09-09T06:13:37;96386.28;;;15.93;65.60
48216;BME280;34005;48.844;10.098;2022-09-09T06:16:08;96391.47;;;15.99;65.70
48216;BME280;34005;48.844;10.098;2022-09-09T06:18:38;96382.69;;;16.05;65.51
48216;BME280;34005;48.844;10.098;2022-09-09T06:21:09;96386.25;;;16.11;65.42
48216;BME280;34005;48.844;10.098;2022-09-09T06:23:39;96390.22;;;16.20;65.36
48216;BME280;34005;48.844;10.098;2022-09-09T06:26:10;96388.88;;;16.30;65.27
48216;BME280;34005;48.844;10.098;2022-09-09T06:28:38;96378.84;;;16.38;64.67
48216;BME280;34005;48.844;10.098;2022-09-09T06:31:08;96378.97;;;16.43;64.52
48216;BME280;34005;48.844;10.098;2022-09-09T06:33:37;96373.25;;;16.46;64.79
48216;BME280;34005;48.844;10.098;2022-09-09T06:36:11;96380.38;;;16.58;64.45
48216;BME280;34005;48.844;10.098;2022-09-09T06:38:40;96379.16;;;16.72;64.26
48216;BME280;34005;48.844;10.098;2022-09-09T06:41:09;96385.19;;;16.91;63.76
48216;BME280;34005;48.844;10.098;2022-09-09T06:43:37;96393.13;;;17.15;63.25
48216;BME280;34005;48.844;10.098;2022-09-09T06:46:06;96399.19;;;17.39;64.01
48216;BME280;34005;48.844;10.098;2022-09-09T06:48:34;96398.38;;;17.62;63.36
48216;BME280;34005;48.844;10.098;2022-09-09T06:51:03;96395.38;;;17.82;63.25
48216;BME280;34005;48.844;10.098;2022-09-09T06:53:35;96397.53;;;17.97;64.22
48216;BME280;34005;48.844;10.098;2022-09-09T06:56:18;96398.53;;;18.07;64.33
48216;BME280;34005;48.844;10.098;2022-09-09T06:58:46;96408.50;;;18.17;63.99
48216;BME280;34005;48.844;10.098;2022-09-09T07:01:16;96404.69;;;18.25;63.35
48216;BME280;34005;48.844;10.098;2022-09-09T07:03:46;96412.25;;;18.33;62.98
48216;BME280;34005;48.844;10.098;2022-09-09T07:06:15;96408.97;;;18.43;63.46
48216;BME280;34005;48.844;10.098;2022-09-09T07:08:48;96403.81;;;18.65;62.94
48216;BME280;34005;48.844;10.098;2022-09-09T07:11:24;96400.63;;;18.91;61.89
48216;BME280;34005;48.844;10.098;2022-09-09T07:13:52;96397.50;;;19.11;61.29
48216;BME280;34005;48.844;10.098;2022-09-09T07:16:21;96398.53;;;19.27;61.66
48216;BME280;34005;48.844;10.098;2022-09-09T07:18:50;96398.25;;;19.46;60.75
48216;BME280;34005;48.844;10.098;2022-09-09T07:21:18;96402.34;;;19.70;58.37
48216;BME280;34005;48.844;10.098;2022-09-09T07:23:48;96396.31;;;19.97;57.31
48216;BME280;34005;48.844;10.098;2022-09-09T07:26:17;96412.00;;;20.26;58.52
48216;BME280;34005;48.844;10.098;2022-09-09T07:28:46;96409.66;;;20.51;58.12
48216;BME280;34005;48.844;10.098;2022-09-09T07:31:15;96411.97;;;20.70;56.15
48216;BME280;34005;48.844;10.098;2022-09-09T07:33:44;96401.56;;;20.90;55.71
48216;BME280;34005;48.844;10.098;2022-09-09T07:36:14;96411.03;;;21.18;55.80
48216;BME280;34005;48.844;10.098;2022-09-09T07:38:44;96405.97;;;21.44;54.89
48216;BME280;34005;48.844;10.098;2022-09-09T07:41:15;96409.50;;;21.60;52.78
48216;BME280;34005;48.844;10.098;2022-09-09T07:43:45;96424.47;;;21.76;53.52
48216;BME280;34005;48.844;10.098;2022-09-09T07:46:15;96426.63;;;21.85;53.37
48216;BME280;34005;48.844;10.098;2022-09-09T07:48:43;96422.41;;;21.89;53.19
48216;BME280;34005;48.844;10.098;2022-09-09T07:51:14;96422.19;;;21.95;52.76
48216;BME280;34005;48.844;10.098;2022-09-09T07:53:47;96421.72;;;22.09;52.51
48216;BME280;34005;48.844;10.098;2022-09-09T07:56:17;96422.09;;;22.33;51.96
48216;BME280;34005;48.844;10.098;2022-09-09T07:58:50;96417.91;;;22.52;48.53
48216;BME280;34005;48.844;10.098;2022-09-09T08:01:20;96424.06;;;22.78;49.38
48216;BME280;34005;48.844;10.098;2022-09-09T08:03:53;96418.53;;;23.06;48.84
48216;BME280;34005;48.844;10.098;2022-09-09T08:06:22;96409.47;;;23.27;47.92
48216;BME280;34005;48.844;10.098;2022-09-09T08:08:51;96418.22;;;23.43;47.39
48216;BME280;34005;48.844;10.098;2022-09-09T08:11:22;96421.16;;;23.52;46.52
48216;BME280;34005;48.844;10.098;2022-09-09T08:13:51;96429.13;;;23.62;46.88
48216;BME280;34005;48.844;10.098;2022-09-09T08:16:25;96433.66;;;23.77;44.85
48216;BME280;34005;48.844;10.098;2022-09-09T08:18:53;96435.78;;;23.80;43.86
48216;BME280;34005;48.844;10.098;2022-09-09T08:21:22;96438.16;;;23.76;43.95
48216;BME280;34005;48.844;10.098;2022-09-09T08:23:52;96434.97;;;23.69;45.54
48216;BME280;34005;48.844;10.098;2022-09-09T08:26:26;96445.09;;;23.62;45.27
48216;BME280;34005;48.844;10.098;2022-09-09T08:28:56;96440.81;;;23.61;45.93
48216;BME280;34005;48.844;10.098;2022-09-09T08:31:25;96441.34;;;23.78;45.95
48216;BME280;34005;48.844;10.098;2022-09-09T08:33:55;96437.25;;;24.17;44.22
48216;BME280;34005;48.844;10.098;2022-09-09T08:36:25;96431.41;;;24.70;44.67
48216;BME280;34005;48.844;10.098;2022-09-09T08:52:59;96457.31;;;28.05;36.94
48216;BME280;34005;48.844;10.098;2022-09-09T11:00:03;96396.69;;;31.34;31.08
48216;BME280;34005;48.844;10.098;2022-09-09T11:02:33;96404.22;;;31.67;29.72
48216;BME280;34005;48.844;10.098;2022-09-09T11:05:04;96396.94;;;32.06;28.83
48216;BME280;34005;48.844;10.098;2022-09-09T11:07:37;96399.91;;;32.13;28.68
48216;BME280;34005;48.844;10.098;2022-09-09T11:33:12;96394.69;;;28.37;33.26
48216;BME280;34005;48.844;10.098;2022-09-09T11:35:55;96393.50;;;28.29;32.03
48216;BME280;34005;48.844;10.098;2022-09-09T11:38:39;96390.63;;;28.40;30.49
48216;BME280;34005;48.844;10.098;2022-09-09T11:41:12;96394.09;;;28.54;30.17
48216;BME280;34005;48.844;10.098;2022-09-09T11:43:48;96383.94;;;28.65;29.73
48216;BME280;34005;48.844;10.098;2022-09-09T11:46:19;96381.91;;;28.70;30.29
48216;BME280;34005;48.844;10.098;2022-09-09T11:49:00;96380.16;;;28.66;30.36
48216;BME280;34005;48.844;10.098;2022-09-09T11:51:36;96381.63;;;28.72;30.66
48216;BME280;34005;48.844;10.098;2022-09-09T11:54:29;96375.63;;;28.75;29.66
48216;BME280;34005;48.844;10.098;2022-09-09T11:57:02;96370.75;;;28.77;29.03
48216;BME280;34005;48.844;10.098;2022-09-09T11:59:34;96365.72;;;28.75;30.19
48216;BME280;34005;48.844;10.098;2022-09-09T12:02:13;96373.44;;;28.77;31.06
48216;BME280;34005;48.844;10.098;2022-09-09T12:04:58;96364.09;;;28.74;30.75
48216;BME280;34005;48.844;10.098;2022-09-09T12:07:35;96368.81;;;28.69;30.40
48216;BME280;34005;48.844;10.098;2022-09-09T12:10:22;96370.75;;;28.54;29.33
48216;BME280;34005;48.844;10.098;2022-09-09T12:13:08;96366.69;;;28.43;31.78
48216;BME280;34005;48.844;10.098;2022-09-09T12:15:47;96353.19;;;28.34;31.53
48216;BME280;34005;48.844;10.098;2022-09-09T12:18:26;96355.16;;;28.29;30.66
48216;BME280;34005;48.844;10.098;2022-09-09T12:21:10;96348.94;;;28.20;31.63
48216;BME280;34005;48.844;10.098;2022-09-09T12:23:50;96348.06;;;28.10;29.93
48216;BME280;34005;48.844;10.098;2022-09-09T12:26:32;96351.84;;;27.96;30.36
48216;BME280;34005;48.844;10.098;2022-09-09T12:29:11;96351.75;;;27.87;30.81
48216;BME280;34005;48.844;10.098;2022-09-09T12:31:53;96354.00;;;27.66;30.96
48216;BME280;34005;48.844;10.098;2022-09-09T12:34:34;96345.28;;;27.46;31.50
48216;BME280;34005;48.844;10.098;2022-09-09T12:37:15;96338.50;;;27.35;31.07
48216;BME280;34005;48.844;10.098;2022-09-09T12:39:52;96350.22;;;27.25;31.52
48216;BME280;34005;48.844;10.098;2022-09-09T12:42:24;96339.06;;;27.18;31.05
48216;BME280;34005;48.844;10.098;2022-09-09T12:44:54;96350.16;;;27.11;30.65
48216;BME280;34005;48.844;10.098;2022-09-09T12:47:34;96356.69;;;27.05;30.77
48216;BME280;34005;48.844;10.098;2022-09-09T12:50:16;96393.91;;;26.88;32.45
48216;BME280;34005;48.844;10.098;2022-09-09T12:52:48;96404.09;;;26.48;33.31
48216;BME280;34005;48.844;10.098;2022-09-09T12:55:23;96398.34;;;26.17;34.39
48216;BME280;34005;48.844;10.098;2022-09-09T12:57:56;96400.69;;;25.99;35.38
48216;BME280;34005;48.844;10.098;2022-09-09T13:00:26;96411.31;;;25.80;34.86
48216;BME280;34005;48.844;10.098;2022-09-09T13:03:02;96403.28;;;25.56;36.00
48216;BME280;34005;48.844;10.098;2022-09-09T13:05:36;96399.47;;;25.33;35.79
48216;BME280;34005;48.844;10.098;2022-09-09T13:08:10;96394.81;;;25.15;36.06
48216;BME280;34005;48.844;10.098;2022-09-09T13:10:43;96399.97;;;25.06;35.80
48216;BME280;34005;48.844;10.098;2022-09-09T13:13:38;96398.09;;;25.01;35.63
48216;BME280;34005;48.844;10.098;2022-09-09T13:16:17;96401.13;;;24.90;36.50
48216;BME280;34005;48.844;10.098;2022-09-09T13:18:46;96399.66;;;24.73;36.99
48216;BME280;34005;48.844;10.098;2022-09-09T13:21:14;96396.28;;;24.62;37.17
48216;BME280;34005;48.844;10.098;2022-09-09T13:23:48;96397.41;;;24.51;37.82
48216;BME280;34005;48.844;10.098;2022-09-09T13:26:24;96397.94;;;24.43;37.53
48216;BME280;34005;48.844;10.098;2022-09-09T13:28:54;96388.94;;;24.34;37.83
48216;BME280;34005;48.844;10.098;2022-09-09T13:31:24;96388.16;;;24.28;38.02
48216;BME280;34005;48.844;10.098;2022-09-09T13:33:55;96389.00;;;24.23;38.67
48216;BME280;34005;48.844;10.098;2022-09-09T13:36:29;96379.94;;;24.19;39.26
48216;BME280;34005;48.844;10.098;2022-09-09T13:39:01;96374.09;;;24.17;38.96
48216;BME280;34005;48.844;10.098;2022-09-09T13:41:32;96371.16;;;24.14;38.66
48216;BME280;34005;48.844;10.098;2022-09-09T13:44:01;96364.53;;;24.11;38.75
48216;BME280;34005;48.844;10.098;2022-09-09T13:46:33;96361.31;;;24.09;39.08
48216;BME280;34005;48.844;10.098;2022-09-09T13:49:17;96363.50;;;24.02;38.39
48216;BME280;34005;48.844;10.098;2022-09-09T13:51:47;96356.59;;;23.96;38.37
48216;BME280;34005;48.844;10.098;2022-09-09T13:54:20;96359.81;;;23.93;37.33
48216;BME280;34005;48.844;10.098;2022-09-09T13:56:49;96348.63;;;23.91;36.98
48216;BME280;34005;48.844;10.098;2022-09-09T13:59:19;96346.25;;;23.84;37.42
48216;BME280;34005;48.844;10.098;2022-09-09T14:01:48;96350.28;;;23.76;38.21
48216;BME280;34005;48.844;10.098;2022-09-09T14:04:20;96340.41;;;23.72;37.97
48216;BME280;34005;48.844;10.098;2022-09-09T14:06:49;96334.31;;;23.66;37.78
48216;BME280;34005;48.844;10.098;2022-09-09T14:09:19;96340.19;;;23.63;38.51
48216;BME280;34005;48.844;10.098;2022-09-09T14:11:47;96340.72;;;23.60;38.62
48216;BME280;34005;48.844;10.098;2022-09-09T14:14:15;96335.66;;;23.58;38.94
48216;BME280;34005;48.844;10.098;2022-09-09T14:16:43;96332.47;;;23.56;38.59
48216;BME280;34005;48.844;10.098;2022-09-09T14:19:11;96337.56;;;23.53;38.20
48216;BME280;34005;48.844;10.098;2022-09-09T14:21:39;96330.38;;;23.48;38.28
48216;BME280;34005;48.844;10.098;2022-09-09T14:24:07;96329.31;;;23.49;39.25
48216;BME280;34005;48.844;10.098;2022-09-09T14:26:36;96334.38;;;23.51;38.82
48216;BME280;34005;48.844;10.098;2022-09-09T14:29:04;96331.72;;;23.51;39.06
48216;BME280;34005;48.844;10.098;2022-09-09T14:31:32;96328.00;;;23.47;38.48
48216;BME280;34005;48.844;10.098;2022-09-09T14:34:00;96334.66;;;23.39;39.02
48216;BME280;34005;48.844;10.098;2022-09-09T14:36:28;96334.41;;;23.30;38.68
48216;BME280;34005;48.844;10.098;2022-09-09T14:38:56;96326.44;;;23.25;39.18
48216;BME280;34005;48.844;10.098;2022-09-09T14:41:25;96327.25;;;23.20;39.68
48216;BME280;34005;48.844;10.098;2022-09-09T14:43:54;96328.84;;;23.16;39.59
48216;BME280;34005;48.844;10.098;2022-09-09T14:46:22;96329.13;;;23.15;39.78
48216;BME280;34005;48.844;10.098;2022-09-09T14:48:50;96325.66;;;23.14;39.77
48216;BME280;34005;48.844;10.098;2022-09-09T14:51:20;96319.03;;;23.12;39.85
48216;BME280;34005;48.844;10.098;2022-09-09T14:53:51;96319.28;;;23.10;40.61
48216;BME280;34005;48.844;10.098;2022-09-09T14:56:21;96327.25;;;23.10;40.28
48216;BME280;34005;48.844;10.098;2022-09-09T14:58:50;96333.13;;;23.07;40.89
48216;BME280;34005;48.844;10.098;2022-09-09T15:01:22;96326.47;;;23.04;40.69
48216;BME280;34005;48.844;10.098;2022-09-09T15:03:51;96332.59;;;23.05;40.66
48216;BME280;34005;48.844;10.098;2022-09-09T15:06:22;96335.78;;;23.02;41.19
48216;BME280;34005;48.844;10.098;2022-09-09T15:08:52;96332.31;;;23.01;40.94
48216;BME280;34005;48.844;10.098;2022-09-09T15:11:21;96331.53;;;23.01;41.31
48216;BME280;34005;48.844;10.098;2022-09-09T15:13:51;96330.75;;;23.00;41.53
48216;BME280;34005;48.844;10.098;2022-09-09T15:16:23;96333.13;;;23.02;41.50
48216;BME280;34005;48.844;10.098;2022-09-09T15:18:53;96330.44;;;23.02;41.55
48216;BME280;34005;48.844;10.098;2022-09-09T15:21:24;96323.56;;;23.01;41.30
48216;BME280;34005;48.844;10.098;2022-09-09T15:23:52;96327.78;;;23.02;41.47
48216;BME280;34005;48.844;10.098;2022-09-09T15:26:20;96330.44;;;23.02;41.26
48216;BME280;34005;48.844;10.098;2022-09-09T15:28:48;96325.41;;;23.00;41.15
48216;BME280;34005;48.844;10.098;2022-09-09T15:31:19;96331.22;;;22.97;41.04
48216;BME280;34005;48.844;10.098;2022-09-09T15:33:49;96328.59;;;22.92;39.97
48216;BME280;34005;48.844;10.098;2022-09-09T15:36:19;96327.00;;;22.86;40.58
48216;BME280;34005;48.844;10.098;2022-09-09T15:38:48;96325.13;;;22.81;40.60
48216;BME280;34005;48.844;10.098;2022-09-09T15:41:17;96325.38;;;22.80;40.44
48216;BME280;34005;48.844;10.098;2022-09-09T15:43:45;96332.84;;;22.78;40.63
48216;BME280;34005;48.844;10.098;2022-09-09T15:46:26;96326.72;;;22.77;39.36
48216;BME280;34005;48.844;10.098;2022-09-09T15:48:57;96326.44;;;22.74;39.11
48216;BME280;34005;48.844;10.098;2022-09-09T15:51:25;96334.72;;;22.72;39.18
48216;BME280;34005;48.844;10.098;2022-09-09T15:54:10;96324.88;;;22.73;39.29
48216;BME280;34005;48.844;10.098;2022-09-09T15:56:39;96322.75;;;22.75;39.41
48216;BME280;34005;48.844;10.098;2022-09-09T15:59:07;96325.69;;;22.78;40.09
48216;BME280;34005;48.844;10.098;2022-09-09T16:01:35;96336.03;;;22.80;38.99
48216;BME280;34005;48.844;10.098;2022-09-09T16:04:05;96322.72;;;22.80;38.35
48216;BME280;34005;48.844;10.098;2022-09-09T16:06:32;96327.00;;;22.81;38.77
48216;BME280;34005;48.844;10.098;2022-09-09T16:09:03;96328.59;;;22.82;38.68
48216;BME280;34005;48.844;10.098;2022-09-09T16:11:33;96326.47;;;22.84;39.32
48216;BME280;34005;48.844;10.098;2022-09-09T16:14:02;96311.81;;;22.87;39.59